sensor_id;sensor_type;location;lat;lon;timestamp;P1;durP1;ratioP1;P2;durP2;ratioP2
32333;SDS011;18810;53.040;8.850;2023-04-24T00:01:28;7.05;;;4.68;;
32333;SDS011;18810;53.040;8.850;2023-04-24T00:03:54;5.10;;;4.60;;
32333;SDS011;18810;53.040;8.850;2023-04-24T00:06:24;5.90;;;5.03;;
32333;SDS011;18810;53.040;8.850;2023-04-24T00:09:00;7.00;;;5.00;;
32333;SDS011;18810;53.040;8.850;2023-04-24T00:11:26;5.75;;;4.50;;
32333;SDS011;18810;53.040;8.850;2023-04-24T00:13:52;5.07;;;4.47;;
32333;SDS011;18810;53.040;8.850;2023-04-24T00:16:18;6.90;;;4.60;;
32333;SDS011;18810;53.040;8.850;2023-04-24T00:18:44;5.25;;;4.65;;
32333;SDS011;18810;53.040;8.850;2023-04-24T00:21:13;7.05;;;4.97;;
32333;SDS011;18810;53.040;8.850;2023-04-24T00:23:40;5.30;;;4.82;;
32333;SDS011;18810;53.040;8.850;2023-04-24T00:26:05;5.22;;;4.63;;
32333;SDS011;18810;53.040;8.850;2023-04-24T00:28:31;6.88;;;5.30;;
32333;SDS011;18810;53.040;8.850;2023-04-24T00:30:57;7.00;;;5.68;;
32333;SDS011;18810;53.040;8.850;2023-04-24T00:33:22;6.45;;;5.28;;
32333;SDS011;18810;53.040;8.850;2023-04-24T00:35:48;7.60;;;5.55;;
32333;SDS011;18810;53.040;8.850;2023-04-24T00:38:14;7.70;;;5.60;;
32333;SDS011;18810;53.040;8.850;2023-04-24T00:40:39;6.05;;;5.10;;
32333;SDS011;18810;53.040;8.850;2023-04-24T00:43:05;7.40;;;4.78;;
32333;SDS011;18810;53.040;8.850;2023-04-24T00:45:31;6.50;;;4.82;;
32333;SDS011;18810;53.040;8.850;2023-04-24T00:47:57;8.02;;;5.07;;
32333;SDS011;18810;53.040;8.850;2023-04-24T00:50:23;5.57;;;4.40;;
32333;SDS011;18810;53.040;8.850;2023-04-24T00:52:49;5.78;;;4.47;;
32333;SDS011;18810;53.040;8.850;2023-04-24T00:55:16;5.05;;;4.28;;
32333;SDS011;18810;53.040;8.850;2023-04-24T00:57:42;5.10;;;3.95;;
32333;SDS011;18810;53.040;8.850;2023-04-24T01:00:09;5.50;;;4.40;;
32333;SDS011;18810;53.040;8.850;2023-04-24T01:02:36;4.78;;;4.38;;
32333;SDS011;18810;53.040;8.850;2023-04-24T01:05:09;4.70;;;4.25;;
32333;SDS011;18810;53.040;8.850;2023-04-24T01:07:35;4.43;;;4.03;;
32333;SDS011;18810;53.040;8.850;2023-04-24T01:10:01;8.02;;;4.40;;
32333;SDS011;18810;53.040;8.850;2023-04-24T01:12:28;4.72;;;3.80;;
32333;SDS011;18810;53.040;8.850;2023-04-24T01:14:54;4.45;;;4.05;;
32333;SDS011;18810;53.040;8.850;2023-04-24T01:17:21;4.20;;;3.80;;
32333;SDS011;18810;53.040;8.850;2023-04-24T01:19:47;4.20;;;3.90;;
32333;SDS011;18810;53.040;8.850;2023-04-24T01:22:14;3.90;;;3.60;;
32333;SDS011;18810;53.040;8.850;2023-04-24T01:24:40;4.13;;;3.78;;
32333;SDS011;18810;53.040;8.850;2023-04-24T01:27:07;4.03;;;3.72;;
32333;SDS011;18810;53.040;8.850;2023-04-24T01:29:34;4.50;;;3.97;;
32333;SDS011;18810;53.040;8.850;2023-04-24T01:32:00;3.92;;;3.63;;
32333;SDS011;18810;53.040;8.850;2023-04-24T01:34:26;3.95;;;3.55;;
32333;SDS011;18810;53.040;8.850;2023-04-24T01:36:52;3.20;;;2.90;;
32333;SDS011;18810;53.040;8.850;2023-04-24T01:39:18;3.80;;;3.50;;
32333;SDS011;18810;53.040;8.850;2023-04-24T01:41:45;3.47;;;3.17;;
32333;SDS011;18810;53.040;8.850;2023-04-24T01:44:11;3.20;;;3.00;;
32333;SDS011;18810;53.040;8.850;2023-04-24T01:46:37;3.65;;;3.35;;
32333;SDS011;18810;53.040;8.850;2023-04-24T01:49:03;4.00;;;3.60;;
32333;SDS011;18810;53.040;8.850;2023-04-24T01:51:29;3.33;;;3.13;;
32333;SDS011;18810;53.040;8.850;2023-04-24T01:53:55;4.03;;;3.42;;
32333;SDS011;18810;53.040;8.850;2023-04-24T01:56:21;4.45;;;3.10;;
32333;SDS011;18810;53.040;8.850;2023-04-24T01:58:48;3.30;;;3.10;;
32333;SDS011;18810;53.040;8.850;2023-04-24T02:01:19;3.40;;;3.10;;
32333;SDS011;18810;53.040;8.850;2023-04-24T02:03:45;3.47;;;3.15;;
32333;SDS011;18810;53.040;8.850;2023-04-24T02:06:11;3.25;;;2.95;;
32333;SDS011;18810;53.040;8.850;2023-04-24T02:08:37;3.38;;;3.08;;
32333;SDS011;18810;53.040;8.850;2023-04-24T02:11:03;3.10;;;2.90;;
32333;SDS011;18810;53.040;8.850;2023-04-24T02:13:29;4.18;;;3.05;;
32333;SDS011;18810;53.040;8.850;2023-04-24T02:15:54;2.95;;;2.75;;
32333;SDS011;18810;53.040;8.850;2023-04-24T02:18:20;3.50;;;2.97;;
32333;SDS011;18810;53.040;8.850;2023-04-24T02:20:47;3.70;;;3.30;;
32333;SDS011;18810;53.040;8.850;2023-04-24T02:23:13;4.75;;;4.35;;
32333;SDS011;18810;53.040;8.850;2023-04-24T02:25:39;4.97;;;4.30;;
32333;SDS011;18810;53.040;8.850;2023-04-24T02:28:05;5.15;;;3.90;;
32333;SDS011;18810;53.040;8.850;2023-04-24T02:30:31;4.60;;;4.20;;
32333;SDS011;18810;53.040;8.850;2023-04-24T02:32:57;4.65;;;4.25;;
32333;SDS011;18810;53.040;8.850;2023-04-24T02:35:22;4.65;;;4.25;;
32333;SDS011;18810;53.040;8.850;2023-04-24T02:37:48;4.50;;;4.10;;
32333;SDS011;18810;53.040;8.850;2023-04-24T02:40:14;4.38;;;3.97;;
32333;SDS011;18810;53.040;8.850;2023-04-24T02:42:40;5.10;;;4.40;;
32333;SDS011;18810;53.040;8.850;2023-04-24T02:45:05;6.25;;;4.40;;
32333;SDS011;18810;53.040;8.850;2023-04-24T02:47:31;4.75;;;4.35;;
32333;SDS011;18810;53.040;8.850;2023-04-24T02:49:57;4.63;;;4.18;;
32333;SDS011;18810;53.040;8.850;2023-04-24T02:52:23;4.60;;;4.20;;
32333;SDS011;18810;53.040;8.850;2023-04-24T02:54:48;5.03;;;4.63;;
32333;SDS011;18810;53.040;8.850;2023-04-24T02:57:14;5.57;;;4.57;;
32333;SDS011;18810;53.040;8.850;2023-04-24T02:59:40;4.95;;;4.53;;
32333;SDS011;18810;53.040;8.850;2023-04-24T03:02:06;5.70;;;4.88;;
32333;SDS011;18810;53.040;8.850;2023-04-24T03:04:32;4.50;;;4.18;;
32333;SDS011;18810;53.040;8.850;2023-04-24T03:06:57;4.53;;;4.13;;
32333;SDS011;18810;53.040;8.850;2023-04-24T03:09:23;4.97;;;4.45;;
32333;SDS011;18810;53.040;8.850;2023-04-24T03:11:49;5.07;;;4.32;;
32333;SDS011;18810;53.040;8.850;2023-04-24T03:14:15;5.03;;;4.57;;
32333;SDS011;18810;53.040;8.850;2023-04-24T03:16:41;4.65;;;4.25;;
32333;SDS011;18810;53.040;8.850;2023-04-24T03:19:07;4.93;;;4.43;;
32333;SDS011;18810;53.040;8.850;2023-04-24T03:21:33;4.13;;;3.72;;
32333;SDS011;18810;53.040;8.850;2023-04-24T03:24:00;5.75;;;4.15;;
32333;SDS011;18810;53.040;8.850;2023-04-24T03:26:27;3.92;;;3.63;;
32333;SDS011;18810;53.040;8.850;2023-04-24T03:28:52;4.65;;;4.00;;
32333;SDS011;18810;53.040;8.850;2023-04-24T03:31:18;6.00;;;4.15;;
32333;SDS011;18810;53.040;8.850;2023-04-24T03:33:46;4.55;;;3.63;;
32333;SDS011;18810;53.040;8.850;2023-04-24T03:36:12;6.00;;;3.50;;
32333;SDS011;18810;53.040;8.850;2023-04-24T03:38:37;4.15;;;3.75;;
32333;SDS011;18810;53.040;8.850;2023-04-24T03:41:03;5.25;;;3.40;;
32333;SDS011;18810;53.040;8.850;2023-04-24T03:43:29;3.95;;;3.55;;
32333;SDS011;18810;53.040;8.850;2023-04-24T03:45:54;4.22;;;3.65;;
32333;SDS011;18810;53.040;8.850;2023-04-24T03:48:20;3.95;;;3.55;;
32333;SDS011;18810;53.040;8.850;2023-04-24T03:50:46;4.60;;;3.35;;
32333;SDS011;18810;53.040;8.850;2023-04-24T03:53:11;3.72;;;3.42;;
32333;SDS011;18810;53.040;8.850;2023-04-24T03:55:37;4.18;;;3.78;;
32333;SDS011;18810;53.040;8.850;2023-04-24T03:58:03;5.65;;;3.33;;
32333;SDS011;18810;53.040;8.850;2023-04-24T04:00:29;4.15;;;3.38;;
32333;SDS011;18810;53.040;8.850;2023-04-24T04:02:58;5.53;;;3.30;;
32333;SDS011;18810;53.040;8.850;2023-04-24T04:05:24;3.33;;;3.05;;
32333;SDS011;18810;53.040;8.850;2023-04-24T04:07:50;3.50;;;3.20;;
32333;SDS011;18810;53.040;8.850;2023-04-24T04:10:15;3.30;;;3.00;;
32333;SDS011;18810;53.040;8.850;2023-04-24T04:12:42;3.40;;;2.75;;
32333;SDS011;18810;53.040;8.850;2023-04-24T04:15:08;3.90;;;3.00;;
32333;SDS011;18810;53.040;8.850;2023-04-24T04:17:34;4.55;;;3.08;;
32333;SDS011;18810;53.040;8.850;2023-04-24T04:19:59;3.42;;;3.03;;
32333;SDS011;18810;53.040;8.850;2023-04-24T04:22:26;3.65;;;3.00;;
32333;SDS011;18810;53.040;8.850;2023-04-24T04:24:51;3.88;;;2.90;;
32333;SDS011;18810;53.040;8.850;2023-04-24T04:27:17;3.10;;;2.80;;
32333;SDS011;18810;53.040;8.850;2023-04-24T04:29:43;2.85;;;2.60;;
32333;SDS011;18810;53.040;8.850;2023-04-24T04:32:09;3.63;;;3.00;;
32333;SDS011;18810;53.040;8.850;2023-04-24T04:34:35;4.10;;;2.67;;
32333;SDS011;18810;53.040;8.850;2023-04-24T04:37:02;5.10;;;2.67;;
32333;SDS011;18810;53.040;8.850;2023-04-24T04:39:28;3.15;;;2.80;;
32333;SDS011;18810;53.040;8.850;2023-04-24T04:41:55;4.05;;;3.20;;
32333;SDS011;18810;53.040;8.850;2023-04-24T04:44:21;3.30;;;2.60;;
32333;SDS011;18810;53.040;8.850;2023-04-24T04:46:47;3.53;;;3.05;;
32333;SDS011;18810;53.040;8.850;2023-04-24T04:49:13;3.53;;;3.22;;
32333;SDS011;18810;53.040;8.850;2023-04-24T04:51:41;2.72;;;2.47;;
32333;SDS011;18810;53.040;8.850;2023-04-24T04:54:07;4.40;;;3.08;;
32333;SDS011;18810;53.040;8.850;2023-04-24T04:56:33;4.55;;;2.88;;
32333;SDS011;18810;53.040;8.850;2023-04-24T04:58:58;3.75;;;3.05;;
32333;SDS011;18810;53.040;8.850;2023-04-24T05:01:24;4.80;;;2.97;;
32333;SDS011;18810;53.040;8.850;2023-04-24T05:03:52;3.65;;;3.25;;
32333;SDS011;18810;53.040;8.850;2023-04-24T05:06:18;3.90;;;3.35;;
32333;SDS011;18810;53.040;8.850;2023-04-24T05:08:44;3.72;;;3.35;;
32333;SDS011;18810;53.040;8.850;2023-04-24T05:11:10;3.53;;;3.10;;
32333;SDS011;18810;53.040;8.850;2023-04-24T05:13:35;3.88;;;3.47;;
32333;SDS011;18810;53.040;8.850;2023-04-24T05:16:01;4.93;;;3.80;;
32333;SDS011;18810;53.040;8.850;2023-04-24T05:18:27;3.58;;;3.28;;
32333;SDS011;18810;53.040;8.850;2023-04-24T05:20:52;5.68;;;3.67;;
32333;SDS011;18810;53.040;8.850;2023-04-24T05:23:18;4.07;;;3.67;;
32333;SDS011;18810;53.040;8.850;2023-04-24T05:25:44;5.65;;;3.55;;
32333;SDS011;18810;53.040;8.850;2023-04-24T05:28:11;6.68;;;3.90;;
32333;SDS011;18810;53.040;8.850;2023-04-24T05:30:36;6.40;;;4.07;;
32333;SDS011;18810;53.040;8.850;2023-04-24T05:33:02;5.28;;;4.63;;
32333;SDS011;18810;53.040;8.850;2023-04-24T05:35:28;4.30;;;3.90;;
32333;SDS011;18810;53.040;8.850;2023-04-24T05:37:53;5.90;;;4.40;;
32333;SDS011;18810;53.040;8.850;2023-04-24T05:40:19;6.90;;;5.53;;
32333;SDS011;18810;53.040;8.850;2023-04-24T05:42:45;6.30;;;4.95;;
32333;SDS011;18810;53.040;8.850;2023-04-24T05:45:10;5.97;;;5.38;;
32333;SDS011;18810;53.040;8.850;2023-04-24T05:47:41;7.70;;;4.95;;
32333;SDS011;18810;53.040;8.850;2023-04-24T05:50:08;6.60;;;4.95;;
32333;SDS011;18810;53.040;8.850;2023-04-24T05:52:35;8.55;;;5.82;;
32333;SDS011;18810;53.040;8.850;2023-04-24T05:55:00;6.78;;;4.88;;
32333;SDS011;18810;53.040;8.850;2023-04-24T05:57:26;6.88;;;5.63;;
32333;SDS011;18810;53.040;8.850;2023-04-24T05:59:52;6.05;;;5.45;;
32333;SDS011;18810;53.040;8.850;2023-04-24T06:02:17;8.57;;;6.47;;
32333;SDS011;18810;53.040;8.850;2023-04-24T06:04:44;9.38;;;7.25;;
32333;SDS011;18810;53.040;8.850;2023-04-24T06:07:13;7.47;;;6.78;;
32333;SDS011;18810;53.040;8.850;2023-04-24T06:09:39;9.95;;;8.45;;
32333;SDS011;18810;53.040;8.850;2023-04-24T06:12:04;10.77;;;8.95;;
32333;SDS011;18810;53.040;8.850;2023-04-24T06:14:32;9.48;;;8.57;;
32333;SDS011;18810;53.040;8.850;2023-04-24T06:16:57;12.10;;;9.43;;
32333;SDS011;18810;53.040;8.850;2023-04-24T06:19:23;11.40;;;9.98;;
32333;SDS011;18810;53.040;8.850;2023-04-24T06:21:49;10.73;;;9.63;;
32333;SDS011;18810;53.040;8.850;2023-04-24T06:24:15;11.27;;;9.85;;
32333;SDS011;18810;53.040;8.850;2023-04-24T06:26:41;9.93;;;8.93;;
32333;SDS011;18810;53.040;8.850;2023-04-24T06:29:07;11.35;;;10.25;;
32333;SDS011;18810;53.040;8.850;2023-04-24T06:31:33;13.77;;;10.77;;
32333;SDS011;18810;53.040;8.850;2023-04-24T06:34:02;15.57;;;11.70;;
32333;SDS011;18810;53.040;8.850;2023-04-24T06:36:28;13.07;;;11.73;;
32333;SDS011;18810;53.040;8.850;2023-04-24T06:38:54;13.68;;;11.68;;
32333;SDS011;18810;53.040;8.850;2023-04-24T06:41:20;13.65;;;11.48;;
32333;SDS011;18810;53.040;8.850;2023-04-24T06:43:45;15.65;;;13.07;;
32333;SDS011;18810;53.040;8.850;2023-04-24T06:46:11;16.42;;;12.75;;
32333;SDS011;18810;53.040;8.850;2023-04-24T06:48:37;16.77;;;13.00;;
32333;SDS011;18810;53.040;8.850;2023-04-24T06:51:04;16.42;;;12.02;;
32333;SDS011;18810;53.040;8.850;2023-04-24T06:53:30;15.73;;;13.25;;
32333;SDS011;18810;53.040;8.850;2023-04-24T06:55:55;15.45;;;12.32;;
32333;SDS011;18810;53.040;8.850;2023-04-24T06:58:21;16.38;;;13.48;;
32333;SDS011;18810;53.040;8.850;2023-04-24T07:00:47;17.73;;;13.82;;
32333;SDS011;18810;53.040;8.850;2023-04-24T07:03:13;16.00;;;13.77;;
32333;SDS011;18810;53.040;8.850;2023-04-24T07:05:38;15.00;;;13.48;;
32333;SDS011;18810;53.040;8.850;2023-04-24T07:08:05;19.08;;;14.20;;
32333;SDS011;18810;53.040;8.850;2023-04-24T07:10:31;18.27;;;14.50;;
32333;SDS011;18810;53.040;8.850;2023-04-24T07:13:00;19.45;;;14.98;;
32333;SDS011;18810;53.040;8.850;2023-04-24T07:15:26;18.42;;;14.63;;
32333;SDS011;18810;53.040;8.850;2023-04-24T07:17:52;20.30;;;15.63;;
32333;SDS011;18810;53.040;8.850;2023-04-24T07:20:18;20.25;;;14.80;;
32333;SDS011;18810;53.040;8.850;2023-04-24T07:22:43;18.10;;;14.82;;
32333;SDS011;18810;53.040;8.850;2023-04-24T07:25:09;17.45;;;15.20;;
32333;SDS011;18810;53.040;8.850;2023-04-24T07:27:35;19.10;;;14.57;;
32333;SDS011;18810;53.040;8.850;2023-04-24T07:30:01;16.25;;;13.52;;
32333;SDS011;18810;53.040;8.850;2023-04-24T07:32:28;16.05;;;13.60;;
32333;SDS011;18810;53.040;8.850;2023-04-24T07:34:54;15.20;;;13.15;;
32333;SDS011;18810;53.040;8.850;2023-04-24T07:37:20;16.20;;;13.07;;
32333;SDS011;18810;53.040;8.850;2023-04-24T07:39:46;16.08;;;12.68;;
32333;SDS011;18810;53.040;8.850;2023-04-24T07:42:12;18.80;;;14.13;;
32333;SDS011;18810;53.040;8.850;2023-04-24T07:44:38;15.68;;;12.65;;
32333;SDS011;18810;53.040;8.850;2023-04-24T07:47:04;15.27;;;12.82;;
32333;SDS011;18810;53.040;8.850;2023-04-24T07:49:30;15.77;;;12.63;;
32333;SDS011;18810;53.040;8.850;2023-04-24T07:51:59;15.07;;;11.57;;
32333;SDS011;18810;53.040;8.850;2023-04-24T07:54:26;14.98;;;10.98;;
32333;SDS011;18810;53.040;8.850;2023-04-24T07:56:53;14.32;;;11.90;;
32333;SDS011;18810;53.040;8.850;2023-04-24T07:59:19;15.52;;;11.57;;
32333;SDS011;18810;53.040;8.850;2023-04-24T08:01:45;15.75;;;11.80;;
32333;SDS011;18810;53.040;8.850;2023-04-24T08:04:10;15.18;;;12.15;;
32333;SDS011;18810;53.040;8.850;2023-04-24T08:06:36;15.48;;;12.48;;
32333;SDS011;18810;53.040;8.850;2023-04-24T08:09:02;14.68;;;12.07;;
32333;SDS011;18810;53.040;8.850;2023-04-24T08:11:28;16.50;;;12.63;;
32333;SDS011;18810;53.040;8.850;2023-04-24T08:13:53;16.52;;;12.73;;
32333;SDS011;18810;53.040;8.850;2023-04-24T08:16:19;14.40;;;12.27;;
32333;SDS011;18810;53.040;8.850;2023-04-24T08:18:45;15.60;;;13.10;;
32333;SDS011;18810;53.040;8.850;2023-04-24T08:21:11;18.30;;;13.35;;
32333;SDS011;18810;53.040;8.850;2023-04-24T08:23:42;18.70;;;12.40;;
32333;SDS011;18810;53.040;8.850;2023-04-24T08:26:08;17.02;;;12.52;;
32333;SDS011;18810;53.040;8.850;2023-04-24T08:28:34;16.35;;;13.65;;
32333;SDS011;18810;53.040;8.850;2023-04-24T08:31:00;17.65;;;14.93;;
32333;SDS011;18810;53.040;8.850;2023-04-24T08:33:25;17.23;;;14.50;;
32333;SDS011;18810;53.040;8.850;2023-04-24T08:35:52;21.13;;;15.60;;
32333;SDS011;18810;53.040;8.850;2023-04-24T08:38:17;18.08;;;13.57;;
32333;SDS011;18810;53.040;8.850;2023-04-24T08:40:43;18.38;;;14.80;;
32333;SDS011;18810;53.040;8.850;2023-04-24T08:43:11;20.98;;;15.18;;
32333;SDS011;18810;53.040;8.850;2023-04-24T08:45:38;25.30;;;15.55;;
32333;SDS011;18810;53.040;8.850;2023-04-24T08:48:04;23.60;;;16.08;;
32333;SDS011;18810;53.040;8.850;2023-04-24T08:50:31;18.75;;;15.73;;
32333;SDS011;18810;53.040;8.850;2023-04-24T08:52:57;22.15;;;16.05;;
32333;SDS011;18810;53.040;8.850;2023-04-24T08:55:25;20.27;;;16.25;;
32333;SDS011;18810;53.040;8.850;2023-04-24T08:57:51;20.50;;;16.45;;
32333;SDS011;18810;53.040;8.850;2023-04-24T09:00:19;21.52;;;16.55;;
32333;SDS011;18810;53.040;8.850;2023-04-24T09:02:46;22.48;;;17.48;;
32333;SDS011;18810;53.040;8.850;2023-04-24T09:05:16;25.27;;;18.27;;
32333;SDS011;18810;53.040;8.850;2023-04-24T09:07:45;24.67;;;19.00;;
32333;SDS011;18810;53.040;8.850;2023-04-24T09:10:13;27.20;;;18.10;;
32333;SDS011;18810;53.040;8.850;2023-04-24T09:12:40;28.05;;;19.15;;
32333;SDS011;18810;53.040;8.850;2023-04-24T09:15:07;28.08;;;18.63;;
32333;SDS011;18810;53.040;8.850;2023-04-24T09:17:33;25.35;;;19.23;;
32333;SDS011;18810;53.040;8.850;2023-04-24T09:20:00;22.77;;;18.35;;
32333;SDS011;18810;53.040;8.850;2023-04-24T09:22:29;25.80;;;18.63;;
32333;SDS011;18810;53.040;8.850;2023-04-24T09:25:02;26.02;;;19.23;;
32333;SDS011;18810;53.040;8.850;2023-04-24T09:27:32;25.10;;;17.88;;
32333;SDS011;18810;53.040;8.850;2023-04-24T09:29:58;21.80;;;17.90;;
32333;SDS011;18810;53.040;8.850;2023-04-24T09:32:24;25.38;;;17.52;;
32333;SDS011;18810;53.040;8.850;2023-04-24T09:35:07;25.15;;;17.50;;
32333;SDS011;18810;53.040;8.850;2023-04-24T09:37:41;25.33;;;18.75;;
32333;SDS011;18810;53.040;8.850;2023-04-24T09:42:35;23.70;;;17.88;;
32333;SDS011;18810;53.040;8.850;2023-04-24T09:45:01;24.73;;;17.15;;
32333;SDS011;18810;53.040;8.850;2023-04-24T09:47:27;23.10;;;16.80;;
32333;SDS011;18810;53.040;8.850;2023-04-24T09:50:01;25.00;;;17.55;;
32333;SDS011;18810;53.040;8.850;2023-04-24T09:52:34;25.33;;;17.20;;
32333;SDS011;18810;53.040;8.850;2023-04-24T09:55:00;24.40;;;16.35;;
32333;SDS011;18810;53.040;8.850;2023-04-24T09:57:26;19.77;;;15.65;;
32333;SDS011;18810;53.040;8.850;2023-04-24T09:59:53;22.25;;;16.52;;
32333;SDS011;18810;53.040;8.850;2023-04-24T10:02:19;21.50;;;15.88;;
32333;SDS011;18810;53.040;8.850;2023-04-24T10:04:54;20.67;;;16.02;;
32333;SDS011;18810;53.040;8.850;2023-04-24T10:07:21;19.15;;;14.80;;
32333;SDS011;18810;53.040;8.850;2023-04-24T10:09:50;18.23;;;14.65;;
32333;SDS011;18810;53.040;8.850;2023-04-24T10:12:16;18.95;;;14.25;;
32333;SDS011;18810;53.040;8.850;2023-04-24T10:14:42;16.75;;;13.85;;
32333;SDS011;18810;53.040;8.850;2023-04-24T10:17:10;16.70;;;13.32;;
32333;SDS011;18810;53.040;8.850;2023-04-24T10:19:37;18.63;;;14.60;;
32333;SDS011;18810;53.040;8.850;2023-04-24T10:22:05;18.88;;;14.88;;
32333;SDS011;18810;53.040;8.850;2023-04-24T10:24:31;17.98;;;13.80;;
32333;SDS011;18810;53.040;8.850;2023-04-24T10:27:01;22.00;;;14.43;;
32333;SDS011;18810;53.040;8.850;2023-04-24T10:29:27;16.60;;;13.32;;
32333;SDS011;18810;53.040;8.850;2023-04-24T10:31:56;15.65;;;12.77;;
32333;SDS011;18810;53.040;8.850;2023-04-24T10:34:22;17.98;;;14.57;;
32333;SDS011;18810;53.040;8.850;2023-04-24T10:36:50;17.42;;;13.98;;
32333;SDS011;18810;53.040;8.850;2023-04-24T10:39:17;16.70;;;13.40;;
32333;SDS011;18810;53.040;8.850;2023-04-24T10:41:44;14.70;;;13.13;;
32333;SDS011;18810;53.040;8.850;2023-04-24T10:44:15;20.00;;;14.15;;
32333;SDS011;18810;53.040;8.850;2023-04-24T10:46:44;17.25;;;13.68;;
32333;SDS011;18810;53.040;8.850;2023-04-24T10:49:11;16.48;;;14.20;;
32333;SDS011;18810;53.040;8.850;2023-04-24T10:51:47;13.95;;;12.45;;
32333;SDS011;18810;53.040;8.850;2023-04-24T10:54:24;14.60;;;13.10;;
32333;SDS011;18810;53.040;8.850;2023-04-24T10:59:45;13.88;;;11.35;;
32333;SDS011;18810;53.040;8.850;2023-04-24T11:02:16;13.65;;;11.77;;
32333;SDS011;18810;53.040;8.850;2023-04-24T11:04:42;13.48;;;12.02;;
32333;SDS011;18810;53.040;8.850;2023-04-24T11:07:10;12.82;;;11.32;;
32333;SDS011;18810;53.040;8.850;2023-04-24T11:09:36;13.18;;;11.77;;
32333;SDS011;18810;53.040;8.850;2023-04-24T11:12:06;12.07;;;10.85;;
32333;SDS011;18810;53.040;8.850;2023-04-24T11:17:30;12.45;;;11.15;;
32333;SDS011;18810;53.040;8.850;2023-04-24T11:20:05;14.52;;;10.27;;
32333;SDS011;18810;53.040;8.850;2023-04-24T11:22:35;12.63;;;11.05;;
32333;SDS011;18810;53.040;8.850;2023-04-24T11:25:02;12.40;;;11.10;;
32333;SDS011;18810;53.040;8.850;2023-04-24T11:27:29;10.30;;;9.30;;
32333;SDS011;18810;53.040;8.850;2023-04-24T11:34:55;14.40;;;10.25;;
32333;SDS011;18810;53.040;8.850;2023-04-24T11:37:42;10.73;;;9.07;;
32333;SDS011;18810;53.040;8.850;2023-04-24T11:40:11;11.82;;;9.30;;
32333;SDS011;18810;53.040;8.850;2023-04-24T11:42:39;10.63;;;9.63;;
32333;SDS011;18810;53.040;8.850;2023-04-24T11:47:33;10.30;;;8.93;;
32333;SDS011;18810;53.040;8.850;2023-04-24T11:49:59;10.73;;;9.63;;
32333;SDS011;18810;53.040;8.850;2023-04-24T11:52:26;12.88;;;10.90;;
32333;SDS011;18810;53.040;8.850;2023-04-24T11:54:52;9.93;;;8.93;;
32333;SDS011;18810;53.040;8.850;2023-04-24T11:57:19;12.27;;;10.40;;
32333;SDS011;18810;53.040;8.850;2023-04-24T11:59:46;13.85;;;10.52;;
32333;SDS011;18810;53.040;8.850;2023-04-24T12:02:22;10.52;;;9.35;;
32333;SDS011;18810;53.040;8.850;2023-04-24T12:04:49;10.68;;;8.38;;
32333;SDS011;18810;53.040;8.850;2023-04-24T12:07:15;8.70;;;7.90;;
32333;SDS011;18810;53.040;8.850;2023-04-24T12:09:44;9.25;;;7.90;;
32333;SDS011;18810;53.040;8.850;2023-04-24T12:12:12;10.55;;;8.65;;
32333;SDS011;18810;53.040;8.850;2023-04-24T12:15:22;9.45;;;8.45;;
32333;SDS011;18810;53.040;8.850;2023-04-24T12:17:33;9.43;;;8.18;;
32333;SDS011;18810;53.040;8.850;2023-04-24T12:19:59;10.38;;;8.38;;
32333;SDS011;18810;53.040;8.850;2023-04-24T12:22:49;11.35;;;8.88;;
32333;SDS011;18810;53.040;8.850;2023-04-24T12:25:18;9.43;;;8.43;;
32333;SDS011;18810;53.040;8.850;2023-04-24T12:27:45;10.02;;;8.20;;
32333;SDS011;18810;53.040;8.850;2023-04-24T12:30:12;9.57;;;8.23;;
32333;SDS011;18810;53.040;8.850;2023-04-24T12:32:42;9.20;;;7.88;;
32333;SDS011;18810;53.040;8.850;2023-04-24T12:35:11;10.18;;;9.05;;
32333;SDS011;18810;53.040;8.850;2023-04-24T12:37:38;11.43;;;9.32;;
32333;SDS011;18810;53.040;8.850;2023-04-24T12:40:11;11.43;;;8.63;;
32333;SDS011;18810;53.040;8.850;2023-04-24T12:45:46;11.10;;;8.65;;
32333;SDS011;18810;53.040;8.850;2023-04-24T12:48:12;11.48;;;8.93;;
32333;SDS011;18810;53.040;8.850;2023-04-24T12:50:42;13.25;;;9.77;;
32333;SDS011;18810;53.040;8.850;2023-04-24T12:53:08;12.38;;;9.40;;
32333;SDS011;18810;53.040;8.850;2023-04-24T12:55:35;10.93;;;8.73;;
32333;SDS011;18810;53.040;8.850;2023-04-24T12:58:01;12.82;;;9.90;;
32333;SDS011;18810;53.040;8.850;2023-04-24T13:00:28;13.57;;;10.32;;
32333;SDS011;18810;53.040;8.850;2023-04-24T13:02:54;12.98;;;10.00;;
32333;SDS011;18810;53.040;8.850;2023-04-24T13:05:20;13.48;;;7.28;;
32333;SDS011;18810;53.040;8.850;2023-04-24T13:07:46;12.38;;;8.20;;
32333;SDS011;18810;53.040;8.850;2023-04-24T13:10:12;18.75;;;11.43;;
32333;SDS011;18810;53.040;8.850;2023-04-24T13:12:39;20.63;;;12.98;;
32333;SDS011;18810;53.040;8.850;2023-04-24T13:15:05;27.13;;;14.77;;
32333;SDS011;18810;53.040;8.850;2023-04-24T13:17:31;29.83;;;16.75;;
32333;SDS011;18810;53.040;8.850;2023-04-24T13:19:58;24.30;;;15.52;;
32333;SDS011;18810;53.040;8.850;2023-04-24T13:22:24;30.40;;;17.20;;
32333;SDS011;18810;53.040;8.850;2023-04-24T13:24:50;27.10;;;16.90;;
32333;SDS011;18810;53.040;8.850;2023-04-24T13:27:15;29.17;;;18.02;;
32333;SDS011;18810;53.040;8.850;2023-04-24T13:29:42;26.77;;;16.48;;
32333;SDS011;18810;53.040;8.850;2023-04-24T13:32:08;30.92;;;16.05;;
32333;SDS011;18810;53.040;8.850;2023-04-24T13:34:34;21.83;;;14.00;;
32333;SDS011;18810;53.040;8.850;2023-04-24T13:37:00;22.10;;;13.73;;
32333;SDS011;18810;53.040;8.850;2023-04-24T13:39:28;21.33;;;11.95;;
32333;SDS011;18810;53.040;8.850;2023-04-24T13:41:54;22.85;;;12.52;;
32333;SDS011;18810;53.040;8.850;2023-04-24T13:44:21;21.42;;;13.93;;
32333;SDS011;18810;53.040;8.850;2023-04-24T13:46:48;26.50;;;12.93;;
32333;SDS011;18810;53.040;8.850;2023-04-24T13:49:16;23.90;;;14.27;;
32333;SDS011;18810;53.040;8.850;2023-04-24T13:51:43;23.08;;;12.90;;
32333;SDS011;18810;53.040;8.850;2023-04-24T13:54:09;21.88;;;13.65;;
32333;SDS011;18810;53.040;8.850;2023-04-24T13:56:36;27.23;;;13.73;;
32333;SDS011;18810;53.040;8.850;2023-04-24T13:59:02;21.25;;;13.88;;
32333;SDS011;18810;53.040;8.850;2023-04-24T14:01:28;24.00;;;14.20;;
32333;SDS011;18810;53.040;8.850;2023-04-24T14:03:55;24.95;;;13.52;;
32333;SDS011;18810;53.040;8.850;2023-04-24T14:06:20;22.63;;;12.75;;
32333;SDS011;18810;53.040;8.850;2023-04-24T14:08:48;21.67;;;13.45;;
32333;SDS011;18810;53.040;8.850;2023-04-24T14:11:14;22.83;;;13.27;;
32333;SDS011;18810;53.040;8.850;2023-04-24T14:13:40;22.23;;;13.00;;
32333;SDS011;18810;53.040;8.850;2023-04-24T14:16:07;23.10;;;11.30;;
32333;SDS011;18810;53.040;8.850;2023-04-24T14:18:33;24.88;;;12.07;;
32333;SDS011;18810;53.040;8.850;2023-04-24T14:20:59;20.10;;;11.27;;
32333;SDS011;18810;53.040;8.850;2023-04-24T14:23:26;22.45;;;10.60;;
32333;SDS011;18810;53.040;8.850;2023-04-24T14:25:52;17.33;;;9.63;;
32333;SDS011;18810;53.040;8.850;2023-04-24T14:28:18;17.08;;;9.80;;
32333;SDS011;18810;53.040;8.850;2023-04-24T14:30:45;18.08;;;10.05;;
32333;SDS011;18810;53.040;8.850;2023-04-24T14:33:11;17.98;;;10.30;;
32333;SDS011;18810;53.040;8.850;2023-04-24T14:35:37;19.70;;;10.30;;
32333;SDS011;18810;53.040;8.850;2023-04-24T14:38:03;19.90;;;10.48;;
32333;SDS011;18810;53.040;8.850;2023-04-24T14:40:30;21.30;;;10.93;;
32333;SDS011;18810;53.040;8.850;2023-04-24T14:42:57;22.80;;;12.43;;
32333;SDS011;18810;53.040;8.850;2023-04-24T14:45:23;23.73;;;11.95;;
32333;SDS011;18810;53.040;8.850;2023-04-24T14:47:49;23.13;;;11.68;;
32333;SDS011;18810;53.040;8.850;2023-04-24T14:50:15;19.33;;;12.23;;